Rockaway, Oregon
Current Conditions -  °F | °C
As of 3:15 PM on Wednesday 17 Dec 2014 (Local Time) from KTMK Reporting Station
Moderate Rain Moderate Rain  
Wind Chill: 48°   Ceiling: 4400
Heat Index: 48°   Visibility: 10mi
Dew Point: 45°   Wind: 0mph
Humidity: 87%   Direction: NA
Pressure: 29.83"   Gusts: NA
Location:  45.6132°N, 123.654°W
Report Text: KTMK 172315Z AUTO 00000KT 10SM RA OVC044 09/07 A2983 RMK AO2
Loading
Personal Weather Stations






























Interactive Weather Map New forecast layout! Learn more

10-Day Weather Forecast

Advertisements
Track Severe Weather on mobile